sensor_id;sensor_type;location;lat;lon;timestamp;P1;durP1;ratioP1;P2;durP2;ratioP2
14342;SDS011;7255;53.596;9.960;2022-11-21T00:01:56;34.17;;;23.40;;
14342;SDS011;7255;53.596;9.960;2022-11-21T00:04:22;33.80;;;23.83;;
14342;SDS011;7255;53.596;9.960;2022-11-21T00:06:49;33.13;;;23.47;;
14342;SDS011;7255;53.596;9.960;2022-11-21T00:09:16;34.23;;;22.47;;
14342;SDS011;7255;53.596;9.960;2022-11-21T00:11:43;33.43;;;23.70;;
14342;SDS011;7255;53.596;9.960;2022-11-21T00:14:09;32.70;;;22.63;;
14342;SDS011;7255;53.596;9.960;2022-11-21T00:16:37;31.00;;;23.10;;
14342;SDS011;7255;53.596;9.960;2022-11-21T00:19:03;31.80;;;22.83;;
14342;SDS011;7255;53.596;9.960;2022-11-21T00:21:29;33.57;;;23.57;;
14342;SDS011;7255;53.596;9.960;2022-11-21T00:23:55;29.47;;;22.57;;
14342;SDS011;7255;53.596;9.960;2022-11-21T00:26:22;31.63;;;23.07;;
14342;SDS011;7255;53.596;9.960;2022-11-21T00:28:48;32.63;;;22.77;;
14342;SDS011;7255;53.596;9.960;2022-11-21T00:31:18;35.07;;;22.77;;
14342;SDS011;7255;53.596;9.960;2022-11-21T00:33:47;37.10;;;23.93;;
14342;SDS011;7255;53.596;9.960;2022-11-21T00:36:13;35.97;;;24.67;;
14342;SDS011;7255;53.596;9.960;2022-11-21T00:38:40;32.67;;;22.97;;
14342;SDS011;7255;53.596;9.960;2022-11-21T00:41:06;32.37;;;22.07;;
14342;SDS011;7255;53.596;9.960;2022-11-21T00:43:32;29.90;;;22.37;;
14342;SDS011;7255;53.596;9.960;2022-11-21T00:45:59;31.83;;;22.60;;
14342;SDS011;7255;53.596;9.960;2022-11-21T00:48:26;32.83;;;23.30;;
14342;SDS011;7255;53.596;9.960;2022-11-21T00:50:54;32.07;;;23.27;;
14342;SDS011;7255;53.596;9.960;2022-11-21T00:53:20;34.60;;;22.97;;
14342;SDS011;7255;53.596;9.960;2022-11-21T00:55:46;32.37;;;23.13;;
14342;SDS011;7255;53.596;9.960;2022-11-21T00:58:13;34.97;;;23.77;;
14342;SDS011;7255;53.596;9.960;2022-11-21T01:00:39;36.83;;;24.03;;
14342;SDS011;7255;53.596;9.960;2022-11-21T01:03:05;30.93;;;23.00;;
14342;SDS011;7255;53.596;9.960;2022-11-21T01:05:32;34.27;;;23.10;;
14342;SDS011;7255;53.596;9.960;2022-11-21T01:07:59;33.27;;;22.07;;
14342;SDS011;7255;53.596;9.960;2022-11-21T01:10:25;34.70;;;22.83;;
14342;SDS011;7255;53.596;9.960;2022-11-21T01:12:52;31.70;;;22.97;;
14342;SDS011;7255;53.596;9.960;2022-11-21T01:15:18;34.97;;;23.60;;
14342;SDS011;7255;53.596;9.960;2022-11-21T01:17:44;34.53;;;23.50;;
14342;SDS011;7255;53.596;9.960;2022-11-21T01:20:11;34.20;;;23.77;;
14342;SDS011;7255;53.596;9.960;2022-11-21T01:22:37;31.87;;;22.43;;
14342;SDS011;7255;53.596;9.960;2022-11-21T01:25:05;34.43;;;23.10;;
14342;SDS011;7255;53.596;9.960;2022-11-21T01:27:32;34.87;;;22.87;;
14342;SDS011;7255;53.596;9.960;2022-11-21T01:29:58;31.67;;;21.67;;
14342;SDS011;7255;53.596;9.960;2022-11-21T01:32:25;34.23;;;21.97;;
14342;SDS011;7255;53.596;9.960;2022-11-21T01:34:51;31.27;;;23.00;;
14342;SDS011;7255;53.596;9.960;2022-11-21T01:37:17;37.17;;;23.60;;
14342;SDS011;7255;53.596;9.960;2022-11-21T01:39:44;34.53;;;23.43;;
14342;SDS011;7255;53.596;9.960;2022-11-21T01:42:12;30.70;;;21.93;;
14342;SDS011;7255;53.596;9.960;2022-11-21T01:44:45;31.57;;;22.13;;
14342;SDS011;7255;53.596;9.960;2022-11-21T01:47:14;34.73;;;24.33;;
14342;SDS011;7255;53.596;9.960;2022-11-21T01:49:40;34.20;;;22.37;;
14342;SDS011;7255;53.596;9.960;2022-11-21T01:52:07;31.97;;;21.53;;
14342;SDS011;7255;53.596;9.960;2022-11-21T01:54:37;34.70;;;22.97;;
14342;SDS011;7255;53.596;9.960;2022-11-21T01:57:09;33.93;;;23.20;;
14342;SDS011;7255;53.596;9.960;2022-11-21T01:59:40;33.07;;;22.27;;
14342;SDS011;7255;53.596;9.960;2022-11-21T02:02:10;37.10;;;22.23;;
14342;SDS011;7255;53.596;9.960;2022-11-21T02:04:40;29.23;;;22.17;;
14342;SDS011;7255;53.596;9.960;2022-11-21T02:07:09;32.33;;;20.53;;
14342;SDS011;7255;53.596;9.960;2022-11-21T02:09:38;30.43;;;20.27;;
14342;SDS011;7255;53.596;9.960;2022-11-21T02:12:08;30.83;;;21.67;;
14342;SDS011;7255;53.596;9.960;2022-11-21T02:14:40;32.43;;;21.07;;
14342;SDS011;7255;53.596;9.960;2022-11-21T02:17:09;30.93;;;21.93;;
14342;SDS011;7255;53.596;9.960;2022-11-21T02:19:37;27.60;;;20.73;;
14342;SDS011;7255;53.596;9.960;2022-11-21T02:22:10;26.87;;;20.10;;
14342;SDS011;7255;53.596;9.960;2022-11-21T02:24:41;25.27;;;19.73;;
14342;SDS011;7255;53.596;9.960;2022-11-21T02:27:13;24.63;;;19.47;;
14342;SDS011;7255;53.596;9.960;2022-11-21T02:29:40;28.87;;;19.93;;
14342;SDS011;7255;53.596;9.960;2022-11-21T02:32:08;27.07;;;19.33;;
14342;SDS011;7255;53.596;9.960;2022-11-21T02:34:34;27.17;;;17.97;;
14342;SDS011;7255;53.596;9.960;2022-11-21T02:37:00;25.47;;;18.43;;
14342;SDS011;7255;53.596;9.960;2022-11-21T02:39:28;25.20;;;19.07;;
14342;SDS011;7255;53.596;9.960;2022-11-21T02:41:59;22.97;;;17.97;;
14342;SDS011;7255;53.596;9.960;2022-11-21T02:44:35;27.00;;;17.50;;
14342;SDS011;7255;53.596;9.960;2022-11-21T02:47:04;24.63;;;19.40;;
14342;SDS011;7255;53.596;9.960;2022-11-21T02:49:33;23.43;;;19.00;;
14342;SDS011;7255;53.596;9.960;2022-11-21T02:52:05;23.90;;;17.70;;
14342;SDS011;7255;53.596;9.960;2022-11-21T02:54:31;24.07;;;16.87;;
14342;SDS011;7255;53.596;9.960;2022-11-21T02:56:58;23.33;;;17.30;;
14342;SDS011;7255;53.596;9.960;2022-11-21T02:59:24;24.83;;;17.27;;
14342;SDS011;7255;53.596;9.960;2022-11-21T03:01:52;20.87;;;16.80;;
14342;SDS011;7255;53.596;9.960;2022-11-21T03:04:18;25.50;;;18.73;;
14342;SDS011;7255;53.596;9.960;2022-11-21T03:06:44;21.03;;;16.67;;
14342;SDS011;7255;53.596;9.960;2022-11-21T03:09:10;22.83;;;17.60;;
14342;SDS011;7255;53.596;9.960;2022-11-21T03:11:37;24.87;;;17.53;;
14342;SDS011;7255;53.596;9.960;2022-11-21T03:14:03;25.43;;;17.87;;
14342;SDS011;7255;53.596;9.960;2022-11-21T03:16:30;26.17;;;19.03;;
14342;SDS011;7255;53.596;9.960;2022-11-21T03:18:57;23.57;;;17.03;;
14342;SDS011;7255;53.596;9.960;2022-11-21T03:21:24;24.23;;;17.27;;
14342;SDS011;7255;53.596;9.960;2022-11-21T03:23:50;22.03;;;17.30;;
14342;SDS011;7255;53.596;9.960;2022-11-21T03:26:16;21.70;;;16.27;;
14342;SDS011;7255;53.596;9.960;2022-11-21T03:28:43;19.90;;;16.27;;
14342;SDS011;7255;53.596;9.960;2022-11-21T03:31:09;20.53;;;16.20;;
14342;SDS011;7255;53.596;9.960;2022-11-21T03:33:35;19.67;;;15.33;;
14342;SDS011;7255;53.596;9.960;2022-11-21T03:36:03;22.43;;;15.80;;
14342;SDS011;7255;53.596;9.960;2022-11-21T03:38:29;19.70;;;15.60;;
14342;SDS011;7255;53.596;9.960;2022-11-21T03:40:56;21.73;;;15.93;;
14342;SDS011;7255;53.596;9.960;2022-11-21T03:43:22;20.63;;;15.97;;
14342;SDS011;7255;53.596;9.960;2022-11-21T03:45:49;19.23;;;16.03;;
14342;SDS011;7255;53.596;9.960;2022-11-21T03:48:15;18.33;;;15.27;;
14342;SDS011;7255;53.596;9.960;2022-11-21T03:50:42;19.93;;;14.97;;
14342;SDS011;7255;53.596;9.960;2022-11-21T03:53:10;17.73;;;15.67;;
14342;SDS011;7255;53.596;9.960;2022-11-21T03:55:36;23.63;;;15.80;;
14342;SDS011;7255;53.596;9.960;2022-11-21T03:58:03;22.13;;;15.77;;
14342;SDS011;7255;53.596;9.960;2022-11-21T04:00:29;22.97;;;17.70;;
14342;SDS011;7255;53.596;9.960;2022-11-21T04:02:55;26.20;;;17.53;;
14342;SDS011;7255;53.596;9.960;2022-11-21T04:05:22;23.13;;;17.17;;
14342;SDS011;7255;53.596;9.960;2022-11-21T04:07:48;24.73;;;17.90;;
14342;SDS011;7255;53.596;9.960;2022-11-21T04:10:16;27.57;;;19.60;;
14342;SDS011;7255;53.596;9.960;2022-11-21T04:12:43;26.43;;;19.40;;
14342;SDS011;7255;53.596;9.960;2022-11-21T04:15:09;30.53;;;20.97;;
14342;SDS011;7255;53.596;9.960;2022-11-21T04:17:36;33.00;;;20.20;;
14342;SDS011;7255;53.596;9.960;2022-11-21T04:20:03;32.00;;;21.63;;
14342;SDS011;7255;53.596;9.960;2022-11-21T04:22:30;34.43;;;23.40;;
14342;SDS011;7255;53.596;9.960;2022-11-21T04:24:56;42.43;;;22.60;;
14342;SDS011;7255;53.596;9.960;2022-11-21T04:27:24;34.07;;;22.87;;
14342;SDS011;7255;53.596;9.960;2022-11-21T04:29:50;32.77;;;21.30;;
14342;SDS011;7255;53.596;9.960;2022-11-21T04:32:16;30.10;;;21.47;;
14342;SDS011;7255;53.596;9.960;2022-11-21T04:34:43;34.00;;;21.63;;
14342;SDS011;7255;53.596;9.960;2022-11-21T04:37:09;33.60;;;21.97;;
14342;SDS011;7255;53.596;9.960;2022-11-21T04:39:35;35.00;;;22.03;;
14342;SDS011;7255;53.596;9.960;2022-11-21T04:42:01;31.07;;;20.93;;
14342;SDS011;7255;53.596;9.960;2022-11-21T04:44:29;30.57;;;21.37;;
14342;SDS011;7255;53.596;9.960;2022-11-21T04:46:55;31.93;;;20.70;;
14342;SDS011;7255;53.596;9.960;2022-11-21T04:49:24;31.07;;;21.00;;
14342;SDS011;7255;53.596;9.960;2022-11-21T04:51:50;32.00;;;21.33;;
14342;SDS011;7255;53.596;9.960;2022-11-21T04:54:16;32.73;;;22.07;;
14342;SDS011;7255;53.596;9.960;2022-11-21T04:56:42;31.93;;;21.33;;
14342;SDS011;7255;53.596;9.960;2022-11-21T04:59:09;33.30;;;21.00;;
14342;SDS011;7255;53.596;9.960;2022-11-21T05:01:38;28.90;;;20.27;;
14342;SDS011;7255;53.596;9.960;2022-11-21T05:04:04;30.00;;;20.33;;
14342;SDS011;7255;53.596;9.960;2022-11-21T05:06:30;29.77;;;20.03;;
14342;SDS011;7255;53.596;9.960;2022-11-21T05:08:57;28.83;;;19.97;;
14342;SDS011;7255;53.596;9.960;2022-11-21T05:11:23;32.67;;;21.77;;
14342;SDS011;7255;53.596;9.960;2022-11-21T05:14:07;25.97;;;18.27;;
14342;SDS011;7255;53.596;9.960;2022-11-21T05:16:33;29.10;;;20.13;;
14342;SDS011;7255;53.596;9.960;2022-11-21T05:19:01;25.33;;;17.67;;
14342;SDS011;7255;53.596;9.960;2022-11-21T05:21:27;25.37;;;18.83;;
14342;SDS011;7255;53.596;9.960;2022-11-21T05:23:53;23.47;;;18.20;;
14342;SDS011;7255;53.596;9.960;2022-11-21T05:26:20;27.90;;;19.23;;
14342;SDS011;7255;53.596;9.960;2022-11-21T05:28:46;27.80;;;19.30;;
14342;SDS011;7255;53.596;9.960;2022-11-21T05:31:12;29.97;;;19.47;;
14342;SDS011;7255;53.596;9.960;2022-11-21T05:33:39;26.90;;;19.20;;
14342;SDS011;7255;53.596;9.960;2022-11-21T05:36:06;25.17;;;18.90;;
14342;SDS011;7255;53.596;9.960;2022-11-21T05:38:33;25.50;;;20.00;;
14342;SDS011;7255;53.596;9.960;2022-11-21T05:40:59;26.33;;;18.47;;
14342;SDS011;7255;53.596;9.960;2022-11-21T05:43:25;27.60;;;19.53;;
14342;SDS011;7255;53.596;9.960;2022-11-21T05:46:09;33.20;;;20.70;;
14342;SDS011;7255;53.596;9.960;2022-11-21T05:48:35;31.93;;;21.43;;
14342;SDS011;7255;53.596;9.960;2022-11-21T05:51:02;33.13;;;21.47;;
14342;SDS011;7255;53.596;9.960;2022-11-21T05:53:29;37.37;;;20.87;;
14342;SDS011;7255;53.596;9.960;2022-11-21T05:55:59;35.70;;;20.23;;
14342;SDS011;7255;53.596;9.960;2022-11-21T05:58:27;28.17;;;19.53;;
14342;SDS011;7255;53.596;9.960;2022-11-21T06:00:54;31.90;;;21.30;;
14342;SDS011;7255;53.596;9.960;2022-11-21T06:03:21;33.10;;;19.23;;
14342;SDS011;7255;53.596;9.960;2022-11-21T06:05:56;29.47;;;19.43;;
14342;SDS011;7255;53.596;9.960;2022-11-21T06:08:24;28.63;;;20.27;;
14342;SDS011;7255;53.596;9.960;2022-11-21T06:10:52;28.83;;;19.17;;
14342;SDS011;7255;53.596;9.960;2022-11-21T06:13:18;39.70;;;21.97;;
14342;SDS011;7255;53.596;9.960;2022-11-21T06:15:48;36.17;;;21.03;;
14342;SDS011;7255;53.596;9.960;2022-11-21T06:18:16;30.40;;;20.37;;
14342;SDS011;7255;53.596;9.960;2022-11-21T06:20:42;34.57;;;22.07;;
14342;SDS011;7255;53.596;9.960;2022-11-21T06:23:09;31.93;;;21.87;;
14342;SDS011;7255;53.596;9.960;2022-11-21T06:25:35;32.50;;;21.70;;
14342;SDS011;7255;53.596;9.960;2022-11-21T06:28:03;33.17;;;20.37;;
14342;SDS011;7255;53.596;9.960;2022-11-21T06:30:29;30.47;;;21.17;;
14342;SDS011;7255;53.596;9.960;2022-11-21T06:32:56;29.53;;;21.63;;
14342;SDS011;7255;53.596;9.960;2022-11-21T06:35:22;31.77;;;20.80;;
14342;SDS011;7255;53.596;9.960;2022-11-21T06:37:48;34.80;;;21.10;;
14342;SDS011;7255;53.596;9.960;2022-11-21T06:40:15;28.73;;;20.17;;
14342;SDS011;7255;53.596;9.960;2022-11-21T06:42:41;33.97;;;21.57;;
14342;SDS011;7255;53.596;9.960;2022-11-21T06:45:09;28.23;;;20.23;;
14342;SDS011;7255;53.596;9.960;2022-11-21T06:47:35;34.20;;;20.80;;
14342;SDS011;7255;53.596;9.960;2022-11-21T06:50:02;31.70;;;20.47;;
14342;SDS011;7255;53.596;9.960;2022-11-21T06:52:31;31.07;;;21.03;;
14342;SDS011;7255;53.596;9.960;2022-11-21T06:54:57;30.37;;;20.83;;
14342;SDS011;7255;53.596;9.960;2022-11-21T06:57:24;34.20;;;20.30;;
14342;SDS011;7255;53.596;9.960;2022-11-21T06:59:50;30.73;;;22.00;;
14342;SDS011;7255;53.596;9.960;2022-11-21T07:02:18;31.50;;;21.23;;
14342;SDS011;7255;53.596;9.960;2022-11-21T07:04:44;31.13;;;20.83;;
14342;SDS011;7255;53.596;9.960;2022-11-21T07:07:11;29.70;;;20.77;;
14342;SDS011;7255;53.596;9.960;2022-11-21T07:09:37;30.07;;;19.70;;
14342;SDS011;7255;53.596;9.960;2022-11-21T07:12:04;30.87;;;20.13;;
14342;SDS011;7255;53.596;9.960;2022-11-21T07:14:48;31.30;;;20.77;;
14342;SDS011;7255;53.596;9.960;2022-11-21T07:17:14;29.77;;;21.93;;
14342;SDS011;7255;53.596;9.960;2022-11-21T07:19:42;36.70;;;22.77;;
14342;SDS011;7255;53.596;9.960;2022-11-21T07:22:08;32.60;;;21.83;;
14342;SDS011;7255;53.596;9.960;2022-11-21T07:24:34;31.20;;;20.87;;
14342;SDS011;7255;53.596;9.960;2022-11-21T07:27:01;31.83;;;23.13;;
14342;SDS011;7255;53.596;9.960;2022-11-21T07:29:27;30.67;;;20.73;;
14342;SDS011;7255;53.596;9.960;2022-11-21T07:31:53;30.27;;;20.90;;
14342;SDS011;7255;53.596;9.960;2022-11-21T07:34:20;31.90;;;20.77;;
14342;SDS011;7255;53.596;9.960;2022-11-21T07:36:47;29.80;;;21.30;;
14342;SDS011;7255;53.596;9.960;2022-11-21T07:39:14;32.13;;;20.63;;
14342;SDS011;7255;53.596;9.960;2022-11-21T07:41:40;31.03;;;21.20;;
14342;SDS011;7255;53.596;9.960;2022-11-21T07:44:06;33.90;;;21.23;;
14342;SDS011;7255;53.596;9.960;2022-11-21T07:46:33;28.47;;;19.93;;
14342;SDS011;7255;53.596;9.960;2022-11-21T07:48:59;28.57;;;20.90;;
14342;SDS011;7255;53.596;9.960;2022-11-21T07:51:26;27.83;;;19.30;;
14342;SDS011;7255;53.596;9.960;2022-11-21T07:53:53;30.67;;;20.40;;
14342;SDS011;7255;53.596;9.960;2022-11-21T07:56:20;33.47;;;20.97;;
14342;SDS011;7255;53.596;9.960;2022-11-21T07:58:50;29.40;;;19.70;;
14342;SDS011;7255;53.596;9.960;2022-11-21T08:01:17;27.57;;;19.53;;
14342;SDS011;7255;53.596;9.960;2022-11-21T08:03:45;33.57;;;21.63;;
14342;SDS011;7255;53.596;9.960;2022-11-21T08:06:11;27.53;;;19.53;;
14342;SDS011;7255;53.596;9.960;2022-11-21T08:08:38;29.27;;;19.87;;
14342;SDS011;7255;53.596;9.960;2022-11-21T08:11:06;31.70;;;20.10;;
14342;SDS011;7255;53.596;9.960;2022-11-21T08:13:32;30.50;;;19.77;;
14342;SDS011;7255;53.596;9.960;2022-11-21T08:16:00;28.17;;;20.37;;
14342;SDS011;7255;53.596;9.960;2022-11-21T08:18:28;30.10;;;20.83;;
14342;SDS011;7255;53.596;9.960;2022-11-21T08:20:55;27.07;;;19.20;;
14342;SDS011;7255;53.596;9.960;2022-11-21T08:23:21;30.00;;;21.33;;
14342;SDS011;7255;53.596;9.960;2022-11-21T08:25:47;33.10;;;22.70;;
14342;SDS011;7255;53.596;9.960;2022-11-21T08:28:17;32.30;;;20.77;;
14342;SDS011;7255;53.596;9.960;2022-11-21T08:30:43;31.77;;;20.40;;
14342;SDS011;7255;53.596;9.960;2022-11-21T08:33:09;31.27;;;20.10;;
14342;SDS011;7255;53.596;9.960;2022-11-21T08:35:36;29.70;;;20.33;;
14342;SDS011;7255;53.596;9.960;2022-11-21T08:38:02;29.83;;;20.53;;
14342;SDS011;7255;53.596;9.960;2022-11-21T08:40:29;29.17;;;20.13;;
14342;SDS011;7255;53.596;9.960;2022-11-21T08:42:56;30.00;;;20.03;;
14342;SDS011;7255;53.596;9.960;2022-11-21T08:45:24;30.17;;;20.40;;
14342;SDS011;7255;53.596;9.960;2022-11-21T08:47:51;26.50;;;19.60;;
14342;SDS011;7255;53.596;9.960;2022-11-21T08:50:17;27.93;;;21.37;;
14342;SDS011;7255;53.596;9.960;2022-11-21T08:52:44;26.40;;;19.20;;
14342;SDS011;7255;53.596;9.960;2022-11-21T08:55:10;31.10;;;20.90;;
14342;SDS011;7255;53.596;9.960;2022-11-21T08:57:36;30.00;;;21.07;;
14342;SDS011;7255;53.596;9.960;2022-11-21T09:00:03;29.27;;;20.57;;
14342;SDS011;7255;53.596;9.960;2022-11-21T09:02:32;28.27;;;19.27;;
14342;SDS011;7255;53.596;9.960;2022-11-21T09:04:58;28.40;;;18.43;;
14342;SDS011;7255;53.596;9.960;2022-11-21T09:07:24;28.27;;;19.37;;
14342;SDS011;7255;53.596;9.960;2022-11-21T09:09:51;32.83;;;20.67;;
14342;SDS011;7255;53.596;9.960;2022-11-21T09:12:17;28.30;;;19.97;;
14342;SDS011;7255;53.596;9.960;2022-11-21T09:14:44;29.17;;;18.67;;
14342;SDS011;7255;53.596;9.960;2022-11-21T09:17:28;29.87;;;19.70;;
14342;SDS011;7255;53.596;9.960;2022-11-21T09:20:14;32.20;;;20.73;;
14342;SDS011;7255;53.596;9.960;2022-11-21T09:22:40;37.17;;;22.03;;
14342;SDS011;7255;53.596;9.960;2022-11-21T09:25:07;31.60;;;21.03;;
14342;SDS011;7255;53.596;9.960;2022-11-21T09:27:33;29.70;;;21.00;;
14342;SDS011;7255;53.596;9.960;2022-11-21T09:29:59;30.40;;;21.47;;
14342;SDS011;7255;53.596;9.960;2022-11-21T09:32:26;32.43;;;21.23;;
14342;SDS011;7255;53.596;9.960;2022-11-21T09:34:52;34.13;;;22.57;;
14342;SDS011;7255;53.596;9.960;2022-11-21T09:37:19;35.97;;;23.67;;
14342;SDS011;7255;53.596;9.960;2022-11-21T09:39:46;31.07;;;22.73;;
14342;SDS011;7255;53.596;9.960;2022-11-21T09:42:20;33.13;;;22.13;;
14342;SDS011;7255;53.596;9.960;2022-11-21T09:45:03;29.13;;;20.40;;
14342;SDS011;7255;53.596;9.960;2022-11-21T09:47:34;30.07;;;20.77;;
14342;SDS011;7255;53.596;9.960;2022-11-21T09:50:03;28.33;;;21.10;;
14342;SDS011;7255;53.596;9.960;2022-11-21T09:52:36;30.97;;;20.80;;
14342;SDS011;7255;53.596;9.960;2022-11-21T09:55:06;31.73;;;20.90;;
14342;SDS011;7255;53.596;9.960;2022-11-21T09:57:45;29.10;;;19.70;;
14342;SDS011;7255;53.596;9.960;2022-11-21T10:00:15;30.17;;;20.27;;
14342;SDS011;7255;53.596;9.960;2022-11-21T10:02:45;25.37;;;19.13;;
14342;SDS011;7255;53.596;9.960;2022-11-21T10:05:12;27.13;;;21.00;;
14342;SDS011;7255;53.596;9.960;2022-11-21T10:07:41;28.87;;;19.80;;
14342;SDS011;7255;53.596;9.960;2022-11-21T10:10:13;26.93;;;18.87;;
14342;SDS011;7255;53.596;9.960;2022-11-21T10:12:47;24.93;;;18.93;;
14342;SDS011;7255;53.596;9.960;2022-11-21T10:15:28;27.70;;;19.10;;
14342;SDS011;7255;53.596;9.960;2022-11-21T10:18:06;29.23;;;18.67;;
14342;SDS011;7255;53.596;9.960;2022-11-21T10:20:53;23.97;;;17.40;;
14342;SDS011;7255;53.596;9.960;2022-11-21T10:23:35;25.40;;;18.27;;
14342;SDS011;7255;53.596;9.960;2022-11-21T10:26:14;23.60;;;16.57;;
14342;SDS011;7255;53.596;9.960;2022-11-21T10:28:47;25.27;;;18.07;;
14342;SDS011;7255;53.596;9.960;2022-11-21T10:31:17;20.37;;;14.83;;
14342;SDS011;7255;53.596;9.960;2022-11-21T10:33:45;22.23;;;16.57;;
14342;SDS011;7255;53.596;9.960;2022-11-21T10:36:13;24.67;;;16.47;;
14342;SDS011;7255;53.596;9.960;2022-11-21T10:38:48;24.07;;;17.40;;
14342;SDS011;7255;53.596;9.960;2022-11-21T10:41:16;22.93;;;16.27;;
14342;SDS011;7255;53.596;9.960;2022-11-21T10:43:46;22.67;;;14.93;;
14342;SDS011;7255;53.596;9.960;2022-11-21T10:46:36;19.80;;;14.60;;
14342;SDS011;7255;53.596;9.960;2022-11-21T10:49:03;23.03;;;16.00;;
14342;SDS011;7255;53.596;9.960;2022-11-21T10:51:36;22.57;;;17.83;;
14342;SDS011;7255;53.596;9.960;2022-11-21T10:54:12;22.50;;;16.27;;
14342;SDS011;7255;53.596;9.960;2022-11-21T10:56:58;22.03;;;16.87;;
14342;SDS011;7255;53.596;9.960;2022-11-21T10:59:31;20.43;;;15.63;;
14342;SDS011;7255;53.596;9.960;2022-11-21T11:01:58;22.23;;;15.17;;
14342;SDS011;7255;53.596;9.960;2022-11-21T11:04:27;22.20;;;15.90;;
14342;SDS011;7255;53.596;9.960;2022-11-21T11:06:55;17.73;;;14.43;;
14342;SDS011;7255;53.596;9.960;2022-11-21T11:09:26;21.70;;;15.93;;
14342;SDS011;7255;53.596;9.960;2022-11-21T11:15:17;19.63;;;14.37;;
14342;SDS011;7255;53.596;9.960;2022-11-21T11:17:47;21.93;;;15.27;;
14342;SDS011;7255;53.596;9.960;2022-11-21T11:20:27;20.10;;;14.47;;
14342;SDS011;7255;53.596;9.960;2022-11-21T11:22:55;20.20;;;14.27;;
14342;SDS011;7255;53.596;9.960;2022-11-21T11:25:23;20.47;;;14.43;;
14342;SDS011;7255;53.596;9.960;2022-11-21T11:27:49;19.30;;;14.67;;
14342;SDS011;7255;53.596;9.960;2022-11-21T11:30:18;17.43;;;13.70;;
14342;SDS011;7255;53.596;9.960;2022-11-21T11:32:45;20.77;;;14.93;;
14342;SDS011;7255;53.596;9.960;2022-11-21T11:35:17;22.40;;;14.70;;
14342;SDS011;7255;53.596;9.960;2022-11-21T11:37:48;19.13;;;14.20;;
14342;SDS011;7255;53.596;9.960;2022-11-21T11:40:27;18.07;;;12.70;;
14342;SDS011;7255;53.596;9.960;2022-11-21T11:43:01;17.97;;;12.77;;
14342;SDS011;7255;53.596;9.960;2022-11-21T11:46:18;17.53;;;12.83;;
14342;SDS011;7255;53.596;9.960;2022-11-21T11:49:14;14.13;;;11.53;;
14342;SDS011;7255;53.596;9.960;2022-11-21T11:51:46;17.20;;;12.07;;
14342;SDS011;7255;53.596;9.960;2022-11-21T11:54:18;15.70;;;11.40;;
14342;SDS011;7255;53.596;9.960;2022-11-21T11:56:49;13.50;;;9.87;;
14342;SDS011;7255;53.596;9.960;2022-11-21T11:59:17;12.73;;;11.30;;
14342;SDS011;7255;53.596;9.960;2022-11-21T12:01:49;13.67;;;10.33;;
14342;SDS011;7255;53.596;9.960;2022-11-21T12:04:19;13.17;;;10.07;;
14342;SDS011;7255;53.596;9.960;2022-11-21T12:06:49;12.03;;;9.70;;
14342;SDS011;7255;53.596;9.960;2022-11-21T12:09:20;11.73;;;9.20;;
14342;SDS011;7255;53.596;9.960;2022-11-21T12:11:55;11.50;;;9.20;;
14342;SDS011;7255;53.596;9.960;2022-11-21T12:14:42;10.83;;;8.83;;
14342;SDS011;7255;53.596;9.960;2022-11-21T12:17:34;11.27;;;9.30;;
14342;SDS011;7255;53.596;9.960;2022-11-21T12:20:11;11.93;;;7.83;;
14342;SDS011;7255;53.596;9.960;2022-11-21T12:22:41;11.10;;;8.43;;
14342;SDS011;7255;53.596;9.960;2022-11-21T12:25:10;10.67;;;8.90;;
14342;SDS011;7255;53.596;9.960;2022-11-21T12:27:38;11.37;;;8.00;;
14342;SDS011;7255;53.596;9.960;2022-11-21T12:30:09;9.40;;;8.27;;
14342;SDS011;7255;53.596;9.960;2022-11-21T12:32:51;8.60;;;7.73;;
14342;SDS011;7255;53.596;9.960;2022-11-21T12:35:27;9.57;;;8.60;;
14342;SDS011;7255;53.596;9.960;2022-11-21T12:38:07;10.10;;;7.43;;
14342;SDS011;7255;53.596;9.960;2022-11-21T12:40:47;9.40;;;7.23;;
14342;SDS011;7255;53.596;9.960;2022-11-21T12:43:27;9.87;;;7.63;;
14342;SDS011;7255;53.596;9.960;2022-11-21T12:46:05;8.80;;;7.13;;
14342;SDS011;7255;53.596;9.960;2022-11-21T12:48:45;8.40;;;6.53;;
14342;SDS011;7255;53.596;9.960;2022-11-21T12:51:50;8.10;;;7.30;;
14342;SDS011;7255;53.596;9.960;2022-11-21T12:55:09;9.17;;;7.47;;
14342;SDS011;7255;53.596;9.960;2022-11-21T13:00:45;8.50;;;7.20;;
14342;SDS011;7255;53.596;9.960;2022-11-21T13:03:23;8.70;;;6.20;;
14342;SDS011;7255;53.596;9.960;2022-11-21T13:05:58;7.83;;;6.03;;
14342;SDS011;7255;53.596;9.960;2022-11-21T13:08:26;6.70;;;5.90;;
14342;SDS011;7255;53.596;9.960;2022-11-21T13:10:57;6.73;;;6.10;;
14342;SDS011;7255;53.596;9.960;2022-11-21T13:13:50;6.80;;;5.90;;
14342;SDS011;7255;53.596;9.960;2022-11-21T13:16:25;5.83;;;5.23;;
14342;SDS011;7255;53.596;9.960;2022-11-21T13:19:03;6.87;;;5.90;;
14342;SDS011;7255;53.596;9.960;2022-11-21T13:21:41;7.07;;;5.63;;
14342;SDS011;7255;53.596;9.960;2022-11-21T13:24:08;6.23;;;5.67;;
14342;SDS011;7255;53.596;9.960;2022-11-21T13:26:43;7.80;;;6.47;;
14342;SDS011;7255;53.596;9.960;2022-11-21T13:29:16;7.83;;;6.53;;
14342;SDS011;7255;53.596;9.960;2022-11-21T13:31:44;8.63;;;6.43;;
14342;SDS011;7255;53.596;9.960;2022-11-21T13:37:02;7.00;;;6.30;;
14342;SDS011;7255;53.596;9.960;2022-11-21T13:39:30;7.33;;;6.63;;
14342;SDS011;7255;53.596;9.960;2022-11-21T13:42:07;9.90;;;5.97;;
14342;SDS011;7255;53.596;9.960;2022-11-21T13:48:13;6.73;;;5.60;;
14342;SDS011;7255;53.596;9.960;2022-11-21T13:53:51;8.50;;;6.03;;
14342;SDS011;7255;53.596;9.960;2022-11-21T13:56:34;7.27;;;5.73;;
14342;SDS011;7255;53.596;9.960;2022-11-21T13:59:11;8.30;;;6.30;;
14342;SDS011;7255;53.596;9.960;2022-11-21T14:01:56;8.77;;;5.97;;
14342;SDS011;7255;53.596;9.960;2022-11-21T14:04:48;7.37;;;6.63;;
14342;SDS011;7255;53.596;9.960;2022-11-21T14:07:26;8.07;;;6.90;;
14342;SDS011;7255;53.596;9.960;2022-11-21T14:09:56;7.37;;;6.53;;
14342;SDS011;7255;53.596;9.960;2022-11-21T14:12:26;8.43;;;6.37;;
14342;SDS011;7255;53.596;9.960;2022-11-21T14:15:07;9.10;;;7.63;;
14342;SDS011;7255;53.596;9.960;2022-11-21T14:17:43;11.23;;;7.03;;
14342;SDS011;7255;53.596;9.960;2022-11-21T14:20:14;8.73;;;7.30;;
14342;SDS011;7255;53.596;9.960;2022-11-21T14:22:45;10.83;;;7.17;;
14342;SDS011;7255;53.596;9.960;2022-11-21T14:25:19;10.40;;;7.70;;
14342;SDS011;7255;53.596;9.960;2022-11-21T14:27:49;10.50;;;8.40;;
14342;SDS011;7255;53.596;9.960;2022-11-21T14:30:28;11.90;;;9.23;;
14342;SDS011;7255;53.596;9.960;2022-11-21T14:35:54;11.70;;;9.27;;
14342;SDS011;7255;53.596;9.960;2022-11-21T14:38:22;9.80;;;8.57;;
14342;SDS011;7255;53.596;9.960;2022-11-21T14:40:49;9.80;;;8.43;;
14342;SDS011;7255;53.596;9.960;2022-11-21T14:43:26;11.80;;;9.10;;
14342;SDS011;7255;53.596;9.960;2022-11-21T14:45:55;11.37;;;9.30;;
14342;SDS011;7255;53.596;9.960;2022-11-21T14:48:24;11.73;;;8.77;;
14342;SDS011;7255;53.596;9.960;2022-11-21T14:50:51;9.80;;;8.67;;
14342;SDS011;7255;53.596;9.960;2022-11-21T14:53:19;10.87;;;9.43;;
14342;SDS011;7255;53.596;9.960;2022-11-21T14:55:47;12.73;;;9.43;;
14342;SDS011;7255;53.596;9.960;2022-11-21T14:58:15;10.30;;;8.07;;
14342;SDS011;7255;53.596;9.960;2022-11-21T15:00:43;12.27;;;8.67;;
14342;SDS011;7255;53.596;9.960;2022-11-21T15:03:26;12.57;;;9.07;;
14342;SDS011;7255;53.596;9.960;2022-11-21T15:05:57;11.40;;;9.83;;
14342;SDS011;7255;53.596;9.960;2022-11-21T15:08:25;10.40;;;9.17;;
14342;SDS011;7255;53.596;9.960;2022-11-21T15:10:52;12.53;;;9.37;;
14342;SDS011;7255;53.596;9.960;2022-11-21T15:13:19;10.60;;;9.10;;